sensor_id;sensor_type;location;lat;lon;timestamp;pressure;altitude;pressure_sealevel;temperature;humidity
21357;BME280;10836;53.068;18.234;2023-08-24T00:01:39;101182.69;;;18.04;96.90
21357;BME280;10836;53.068;18.234;2023-08-24T00:04:06;101188.84;;;18.01;96.38
21357;BME280;10836;53.068;18.234;2023-08-24T00:06:34;101193.56;;;17.86;98.46
21357;BME280;10836;53.068;18.234;2023-08-24T00:09:01;101189.81;;;17.82;99.87
21357;BME280;10836;53.068;18.234;2023-08-24T00:11:29;101193.81;;;17.76;100.00
21357;BME280;10836;53.068;18.234;2023-08-24T00:13:57;101193.94;;;17.71;100.00
21357;BME280;10836;53.068;18.234;2023-08-24T00:16:24;101189.09;;;17.63;100.00
21357;BME280;10836;53.068;18.234;2023-08-24T00:18:51;101197.59;;;17.53;100.00
21357;BME280;10836;53.068;18.234;2023-08-24T00:21:18;101178.69;;;17.46;100.00
21357;BME280;10836;53.068;18.234;2023-08-24T00:23:50;101185.63;;;17.44;100.00
21357;BME280;10836;53.068;18.234;2023-08-24T00:26:17;101181.03;;;17.39;100.00
21357;BME280;10836;53.068;18.234;2023-08-24T00:28:44;101182.59;;;17.32;100.00
21357;BME280;10836;53.068;18.234;2023-08-24T00:31:15;101177.69;;;17.28;100.00
21357;BME280;10836;53.068;18.234;2023-08-24T00:33:42;101183.31;;;17.23;100.00
21357;BME280;10836;53.068;18.234;2023-08-24T00:36:09;101193.22;;;17.24;100.00
21357;BME280;10836;53.068;18.234;2023-08-24T00:38:37;101187.91;;;17.14;100.00
21357;BME280;10836;53.068;18.234;2023-08-24T00:41:04;101185.22;;;17.09;100.00
21357;BME280;10836;53.068;18.234;2023-08-24T00:43:31;101193.22;;;17.11;100.00
21357;BME280;10836;53.068;18.234;2023-08-24T00:46:01;101204.47;;;17.14;100.00
21357;BME280;10836;53.068;18.234;2023-08-24T00:48:28;101209.38;;;17.17;100.00
21357;BME280;10836;53.068;18.234;2023-08-24T00:50:59;101207.72;;;17.16;100.00
21357;BME280;10836;53.068;18.234;2023-08-24T00:53:28;101206.31;;;17.33;100.00
21357;BME280;10836;53.068;18.234;2023-08-24T00:55:56;101218.88;;;17.39;100.00
21357;BME280;10836;53.068;18.234;2023-08-24T00:58:26;101211.72;;;17.38;100.00
21357;BME280;10836;53.068;18.234;2023-08-24T01:00:57;101211.19;;;17.36;100.00
21357;BME280;10836;53.068;18.234;2023-08-24T01:03:24;101208.34;;;17.54;100.00
21357;BME280;10836;53.068;18.234;2023-08-24T01:05:52;101213.66;;;17.51;100.00
21357;BME280;10836;53.068;18.234;2023-08-24T01:08:20;101206.91;;;17.57;100.00
21357;BME280;10836;53.068;18.234;2023-08-24T01:10:48;101207.31;;;17.50;100.00
21357;BME280;10836;53.068;18.234;2023-08-24T01:13:27;101210.59;;;17.39;100.00
21357;BME280;10836;53.068;18.234;2023-08-24T01:16:10;101216.31;;;17.28;100.00
21357;BME280;10836;53.068;18.234;2023-08-24T01:18:40;101214.50;;;17.24;100.00
21357;BME280;10836;53.068;18.234;2023-08-24T01:21:10;101213.47;;;17.20;100.00
21357;BME280;10836;53.068;18.234;2023-08-24T01:23:45;101215.59;;;17.09;100.00
21357;BME280;10836;53.068;18.234;2023-08-24T01:26:16;101218.94;;;17.06;100.00
21357;BME280;10836;53.068;18.234;2023-08-24T01:28:45;101217.72;;;16.99;100.00
21357;BME280;10836;53.068;18.234;2023-08-24T01:31:16;101214.22;;;16.93;100.00
21357;BME280;10836;53.068;18.234;2023-08-24T01:33:44;101210.75;;;16.87;100.00
21357;BME280;10836;53.068;18.234;2023-08-24T01:36:14;101217.22;;;16.64;100.00
21357;BME280;10836;53.068;18.234;2023-08-24T01:38:41;101226.34;;;16.46;100.00
21357;BME280;10836;53.068;18.234;2023-08-24T01:43:39;101220.16;;;16.35;100.00
21357;BME280;10836;53.068;18.234;2023-08-24T01:46:13;101220.31;;;16.25;100.00
21357;BME280;10836;53.068;18.234;2023-08-24T01:48:43;101223.72;;;16.17;100.00
21357;BME280;10836;53.068;18.234;2023-08-24T01:51:11;101226.56;;;16.12;100.00
21357;BME280;10836;53.068;18.234;2023-08-24T01:53:39;101221.81;;;15.99;100.00
21357;BME280;10836;53.068;18.234;2023-08-24T01:56:15;101227.63;;;15.97;100.00
21357;BME280;10836;53.068;18.234;2023-08-24T01:58:42;101227.38;;;15.93;100.00
21357;BME280;10836;53.068;18.234;2023-08-24T02:01:09;101229.69;;;15.86;100.00
21357;BME280;10836;53.068;18.234;2023-08-24T02:03:37;101214.81;;;15.87;100.00
21357;BME280;10836;53.068;18.234;2023-08-24T02:06:07;101218.72;;;15.81;100.00
21357;BME280;10836;53.068;18.234;2023-08-24T02:08:34;101220.03;;;15.65;100.00
21357;BME280;10836;53.068;18.234;2023-08-24T02:11:02;101212.72;;;15.55;100.00
21357;BME280;10836;53.068;18.234;2023-08-24T02:13:31;101218.00;;;15.52;100.00
21357;BME280;10836;53.068;18.234;2023-08-24T02:16:07;101219.28;;;15.36;100.00
21357;BME280;10836;53.068;18.234;2023-08-24T02:18:35;101215.94;;;15.39;100.00
21357;BME280;10836;53.068;18.234;2023-08-24T02:21:08;101208.75;;;15.43;100.00
21357;BME280;10836;53.068;18.234;2023-08-24T02:23:35;101217.16;;;15.27;100.00
21357;BME280;10836;53.068;18.234;2023-08-24T02:26:03;101215.56;;;15.21;100.00
21357;BME280;10836;53.068;18.234;2023-08-24T02:28:30;101215.19;;;15.09;100.00
21357;BME280;10836;53.068;18.234;2023-08-24T02:31:04;101213.06;;;15.01;100.00
21357;BME280;10836;53.068;18.234;2023-08-24T02:33:31;101212.00;;;14.97;100.00
21357;BME280;10836;53.068;18.234;2023-08-24T02:35:58;101212.00;;;14.97;100.00
21357;BME280;10836;53.068;18.234;2023-08-24T02:38:26;101209.53;;;14.95;100.00
21357;BME280;10836;53.068;18.234;2023-08-24T02:41:03;101206.59;;;14.87;100.00
21357;BME280;10836;53.068;18.234;2023-08-24T02:43:31;101203.53;;;14.64;100.00
21357;BME280;10836;53.068;18.234;2023-08-24T02:46:02;101204.13;;;14.56;100.00
21357;BME280;10836;53.068;18.234;2023-08-24T02:48:31;101206.31;;;14.59;100.00
21357;BME280;10836;53.068;18.234;2023-08-24T02:50:58;101209.63;;;14.56;100.00
21357;BME280;10836;53.068;18.234;2023-08-24T02:53:26;101210.16;;;14.58;100.00
21357;BME280;10836;53.068;18.234;2023-08-24T02:55:55;101212.13;;;14.53;100.00
21357;BME280;10836;53.068;18.234;2023-08-24T02:58:22;101198.19;;;14.44;100.00
21357;BME280;10836;53.068;18.234;2023-08-24T03:00:49;101205.09;;;14.37;100.00
21357;BME280;10836;53.068;18.234;2023-08-24T03:03:16;101203.81;;;14.24;100.00
21357;BME280;10836;53.068;18.234;2023-08-24T03:06:00;101211.50;;;14.27;100.00
21357;BME280;10836;53.068;18.234;2023-08-24T03:08:30;101208.47;;;14.28;100.00
21357;BME280;10836;53.068;18.234;2023-08-24T03:10:59;101205.38;;;14.35;100.00
21357;BME280;10836;53.068;18.234;2023-08-24T03:13:27;101200.94;;;14.39;100.00
21357;BME280;10836;53.068;18.234;2023-08-24T03:15:55;101207.56;;;14.33;100.00
21357;BME280;10836;53.068;18.234;2023-08-24T03:18:26;101207.94;;;14.26;100.00
21357;BME280;10836;53.068;18.234;2023-08-24T03:20:53;101212.09;;;14.19;100.00
21357;BME280;10836;53.068;18.234;2023-08-24T03:23:20;101206.31;;;14.20;100.00
21357;BME280;10836;53.068;18.234;2023-08-24T03:25:47;101209.84;;;14.26;100.00
21357;BME280;10836;53.068;18.234;2023-08-24T03:28:14;101213.06;;;14.33;100.00
21357;BME280;10836;53.068;18.234;2023-08-24T03:30:47;101206.47;;;14.34;100.00
21357;BME280;10836;53.068;18.234;2023-08-24T03:33:16;101203.69;;;14.44;100.00
21357;BME280;10836;53.068;18.234;2023-08-24T03:35:43;101208.84;;;14.51;100.00
21357;BME280;10836;53.068;18.234;2023-08-24T03:38:10;101214.59;;;14.54;100.00
21357;BME280;10836;53.068;18.234;2023-08-24T03:40:37;101208.53;;;14.57;100.00
21357;BME280;10836;53.068;18.234;2023-08-24T03:43:04;101216.16;;;14.66;100.00
21357;BME280;10836;53.068;18.234;2023-08-24T03:45:31;101209.03;;;14.64;100.00
21357;BME280;10836;53.068;18.234;2023-08-24T03:47:58;101206.81;;;14.67;100.00
21357;BME280;10836;53.068;18.234;2023-08-24T03:50:26;101207.25;;;14.74;100.00
21357;BME280;10836;53.068;18.234;2023-08-24T03:52:54;101201.75;;;14.74;100.00
21357;BME280;10836;53.068;18.234;2023-08-24T03:55:21;101199.25;;;14.48;100.00
21357;BME280;10836;53.068;18.234;2023-08-24T03:57:48;101195.91;;;14.56;100.00
21357;BME280;10836;53.068;18.234;2023-08-24T04:00:16;101200.25;;;14.62;100.00
21357;BME280;10836;53.068;18.234;2023-08-24T04:02:44;101199.66;;;14.66;100.00
21357;BME280;10836;53.068;18.234;2023-08-24T04:05:24;101200.78;;;14.64;100.00
21357;BME280;10836;53.068;18.234;2023-08-24T04:07:52;101208.53;;;14.57;100.00
21357;BME280;10836;53.068;18.234;2023-08-24T04:10:19;101200.72;;;14.70;100.00
21357;BME280;10836;53.068;18.234;2023-08-24T04:12:46;101209.97;;;14.79;100.00
21357;BME280;10836;53.068;18.234;2023-08-24T04:15:13;101207.16;;;14.84;100.00
21357;BME280;10836;53.068;18.234;2023-08-24T04:17:40;101216.19;;;14.89;100.00
21357;BME280;10836;53.068;18.234;2023-08-24T04:20:11;101216.91;;;15.00;100.00
21357;BME280;10836;53.068;18.234;2023-08-24T04:22:38;101216.25;;;15.13;100.00
21357;BME280;10836;53.068;18.234;2023-08-24T04:25:05;101232.81;;;15.32;100.00
21357;BME280;10836;53.068;18.234;2023-08-24T04:27:32;101217.06;;;15.38;100.00
21357;BME280;10836;53.068;18.234;2023-08-24T04:30:00;101232.16;;;15.40;100.00
21357;BME280;10836;53.068;18.234;2023-08-24T04:32:27;101231.22;;;15.50;100.00
21357;BME280;10836;53.068;18.234;2023-08-24T04:34:55;101233.22;;;15.44;100.00
21357;BME280;10836;53.068;18.234;2023-08-24T04:37:22;101240.50;;;15.59;100.00
21357;BME280;10836;53.068;18.234;2023-08-24T04:39:49;101235.97;;;15.68;100.00
21357;BME280;10836;53.068;18.234;2023-08-24T04:42:15;101242.00;;;15.70;100.00
21357;BME280;10836;53.068;18.234;2023-08-24T04:44:42;101238.06;;;15.76;100.00
21357;BME280;10836;53.068;18.234;2023-08-24T04:47:09;101240.03;;;15.94;100.00
21357;BME280;10836;53.068;18.234;2023-08-24T04:49:36;101232.84;;;15.99;100.00
21357;BME280;10836;53.068;18.234;2023-08-24T04:52:04;101226.09;;;16.05;100.00
21357;BME280;10836;53.068;18.234;2023-08-24T04:54:32;101229.56;;;15.96;100.00
21357;BME280;10836;53.068;18.234;2023-08-24T04:56:59;101227.09;;;16.14;100.00
21357;BME280;10836;53.068;18.234;2023-08-24T04:59:26;101225.22;;;16.28;100.00
21357;BME280;10836;53.068;18.234;2023-08-24T05:01:53;101221.34;;;16.29;100.00
21357;BME280;10836;53.068;18.234;2023-08-24T05:04:20;101218.16;;;16.41;100.00
21357;BME280;10836;53.068;18.234;2023-08-24T05:06:47;101222.63;;;16.37;100.00
21357;BME280;10836;53.068;18.234;2023-08-24T05:09:14;101228.06;;;16.42;100.00
21357;BME280;10836;53.068;18.234;2023-08-24T05:11:41;101234.34;;;16.61;100.00
21357;BME280;10836;53.068;18.234;2023-08-24T05:14:08;101229.56;;;16.85;100.00
21357;BME280;10836;53.068;18.234;2023-08-24T05:16:35;101234.16;;;17.04;100.00
21357;BME280;10836;53.068;18.234;2023-08-24T05:19:02;101234.91;;;17.09;100.00
21357;BME280;10836;53.068;18.234;2023-08-24T05:21:30;101229.00;;;17.29;100.00
21357;BME280;10836;53.068;18.234;2023-08-24T05:23:57;101234.53;;;17.57;100.00
21357;BME280;10836;53.068;18.234;2023-08-24T05:26:23;101238.41;;;17.83;100.00
21357;BME280;10836;53.068;18.234;2023-08-24T05:28:52;101236.97;;;17.86;100.00
21357;BME280;10836;53.068;18.234;2023-08-24T05:31:19;101244.31;;;17.90;100.00
21357;BME280;10836;53.068;18.234;2023-08-24T05:33:48;101246.75;;;18.06;100.00
21357;BME280;10836;53.068;18.234;2023-08-24T05:36:14;101249.44;;;18.33;100.00
21357;BME280;10836;53.068;18.234;2023-08-24T05:38:41;101247.69;;;18.37;100.00
21357;BME280;10836;53.068;18.234;2023-08-24T05:41:31;101249.41;;;18.69;100.00
21357;BME280;10836;53.068;18.234;2023-08-24T05:43:58;101245.53;;;18.70;100.00
21357;BME280;10836;53.068;18.234;2023-08-24T05:46:25;101254.75;;;18.66;100.00
21357;BME280;10836;53.068;18.234;2023-08-24T05:48:52;101257.69;;;18.60;100.00
21357;BME280;10836;53.068;18.234;2023-08-24T05:51:19;101257.25;;;18.53;100.00
21357;BME280;10836;53.068;18.234;2023-08-24T05:53:46;101248.66;;;18.55;100.00
21357;BME280;10836;53.068;18.234;2023-08-24T05:56:13;101255.34;;;18.76;100.00
21357;BME280;10836;53.068;18.234;2023-08-24T05:58:40;101249.47;;;18.78;100.00
21357;BME280;10836;53.068;18.234;2023-08-24T06:01:07;101253.38;;;18.77;100.00
21357;BME280;10836;53.068;18.234;2023-08-24T06:03:34;101250.44;;;18.73;100.00
21357;BME280;10836;53.068;18.234;2023-08-24T06:06:02;101251.75;;;18.76;100.00
21357;BME280;10836;53.068;18.234;2023-08-24T06:08:31;101262.19;;;19.01;100.00
21357;BME280;10836;53.068;18.234;2023-08-24T06:10:58;101255.34;;;19.07;100.00
21357;BME280;10836;53.068;18.234;2023-08-24T06:13:25;101258.63;;;19.40;100.00
21357;BME280;10836;53.068;18.234;2023-08-24T06:15:53;101257.75;;;19.62;100.00
21357;BME280;10836;53.068;18.234;2023-08-24T06:18:21;101265.03;;;19.49;100.00
21357;BME280;10836;53.068;18.234;2023-08-24T06:20:48;101259.25;;;19.68;100.00
21357;BME280;10836;53.068;18.234;2023-08-24T06:23:18;101268.09;;;19.87;97.10
21357;BME280;10836;53.068;18.234;2023-08-24T06:25:46;101259.75;;;19.79;97.14
21357;BME280;10836;53.068;18.234;2023-08-24T06:28:13;101259.00;;;20.13;94.32
21357;BME280;10836;53.068;18.234;2023-08-24T06:30:41;101259.00;;;20.13;95.12
21357;BME280;10836;53.068;18.234;2023-08-24T06:33:10;101261.31;;;20.28;92.62
21357;BME280;10836;53.068;18.234;2023-08-24T06:35:40;101258.38;;;20.33;92.00
21357;BME280;10836;53.068;18.234;2023-08-24T06:38:07;101256.72;;;20.84;87.95
21357;BME280;10836;53.068;18.234;2023-08-24T06:40:34;101258.19;;;20.90;85.66
21357;BME280;10836;53.068;18.234;2023-08-24T06:43:01;101265.75;;;20.64;86.83
21357;BME280;10836;53.068;18.234;2023-08-24T06:45:28;101254.75;;;20.93;87.07
21357;BME280;10836;53.068;18.234;2023-08-24T06:47:55;101254.41;;;21.03;84.10
21357;BME280;10836;53.068;18.234;2023-08-24T06:50:22;101258.91;;;21.34;80.55
21357;BME280;10836;53.068;18.234;2023-08-24T06:52:49;101252.31;;;21.47;81.60
21357;BME280;10836;53.068;18.234;2023-08-24T06:55:16;101261.75;;;21.63;79.50
21357;BME280;10836;53.068;18.234;2023-08-24T06:57:48;101260.28;;;21.86;78.11
21357;BME280;10836;53.068;18.234;2023-08-24T07:00:16;101255.75;;;22.32;73.83
21357;BME280;10836;53.068;18.234;2023-08-24T07:02:43;101259.56;;;22.48;73.57
21357;BME280;10836;53.068;18.234;2023-08-24T07:05:10;101267.81;;;23.23;71.15
21357;BME280;10836;53.068;18.234;2023-08-24T07:07:39;101266.06;;;23.18;67.98
21357;BME280;10836;53.068;18.234;2023-08-24T07:10:07;101266.75;;;23.15;65.00
21357;BME280;10836;53.068;18.234;2023-08-24T07:12:34;101272.56;;;23.80;64.66
21357;BME280;10836;53.068;18.234;2023-08-24T07:15:02;101273.31;;;24.17;61.05
21357;BME280;10836;53.068;18.234;2023-08-24T07:17:29;101285.59;;;24.40;58.36
21357;BME280;10836;53.068;18.234;2023-08-24T07:19:56;101283.44;;;24.90;57.92
21357;BME280;10836;53.068;18.234;2023-08-24T07:22:23;101270.91;;;25.27;54.05
21357;BME280;10836;53.068;18.234;2023-08-24T07:24:50;101273.19;;;25.84;54.48
21357;BME280;10836;53.068;18.234;2023-08-24T07:27:19;101269.22;;;25.85;51.73
21357;BME280;10836;53.068;18.234;2023-08-24T07:29:46;101283.94;;;26.72;49.35
21357;BME280;10836;53.068;18.234;2023-08-24T07:32:13;101275.94;;;27.58;48.20
21357;BME280;10836;53.068;18.234;2023-08-24T07:34:40;101278.25;;;27.07;46.28
21357;BME280;10836;53.068;18.234;2023-08-24T07:37:07;101277.13;;;27.11;45.30
21357;BME280;10836;53.068;18.234;2023-08-24T07:39:34;101275.53;;;26.72;46.84
21357;BME280;10836;53.068;18.234;2023-08-24T07:42:01;101272.47;;;25.88;49.56
21357;BME280;10836;53.068;18.234;2023-08-24T07:44:28;101280.81;;;26.03;49.49
21357;BME280;10836;53.068;18.234;2023-08-24T07:46:55;101282.69;;;26.15;49.37
21357;BME280;10836;53.068;18.234;2023-08-24T07:49:22;101274.38;;;26.03;49.00
21357;BME280;10836;53.068;18.234;2023-08-24T07:51:49;101274.56;;;26.10;49.89
21357;BME280;10836;53.068;18.234;2023-08-24T07:54:16;101272.47;;;25.88;48.69
21357;BME280;10836;53.068;18.234;2023-08-24T07:56:43;101270.66;;;25.79;49.49
21357;BME280;10836;53.068;18.234;2023-08-24T07:59:10;101268.41;;;25.85;49.82
21357;BME280;10836;53.068;18.234;2023-08-24T08:01:37;101284.09;;;25.74;49.16
21357;BME280;10836;53.068;18.234;2023-08-24T08:04:04;101275.63;;;25.70;49.55
21357;BME280;10836;53.068;18.234;2023-08-24T08:06:31;101281.56;;;25.53;49.73
21357;BME280;10836;53.068;18.234;2023-08-24T08:08:58;101275.03;;;25.17;50.06
21357;BME280;10836;53.068;18.234;2023-08-24T08:11:26;101290.19;;;24.88;51.42
21357;BME280;10836;53.068;18.234;2023-08-24T08:13:52;101291.19;;;25.08;53.13
21357;BME280;10836;53.068;18.234;2023-08-24T08:16:20;101295.44;;;24.90;55.20
21357;BME280;10836;53.068;18.234;2023-08-24T08:18:46;101284.41;;;24.53;53.36
21357;BME280;10836;53.068;18.234;2023-08-24T08:21:17;101297.56;;;24.81;53.84
21357;BME280;10836;53.068;18.234;2023-08-24T08:23:48;101289.31;;;24.44;54.28
21357;BME280;10836;53.068;18.234;2023-08-24T08:26:16;101290.91;;;25.13;53.23
21357;BME280;10836;53.068;18.234;2023-08-24T08:28:43;101297.56;;;24.81;51.26
21357;BME280;10836;53.068;18.234;2023-08-24T08:31:11;101290.03;;;24.41;51.83
21357;BME280;10836;53.068;18.234;2023-08-24T08:33:38;101289.19;;;24.81;52.51
21357;BME280;10836;53.068;18.234;2023-08-24T08:36:06;101289.94;;;25.37;50.49
21357;BME280;10836;53.068;18.234;2023-08-24T08:38:33;101285.81;;;25.47;48.01
21357;BME280;10836;53.068;18.234;2023-08-24T08:41:03;101291.50;;;25.82;47.19
21357;BME280;10836;53.068;18.234;2023-08-24T08:43:31;101294.59;;;26.12;49.05
21357;BME280;10836;53.068;18.234;2023-08-24T08:45:59;101295.72;;;25.60;51.75
21357;BME280;10836;53.068;18.234;2023-08-24T08:48:28;101284.53;;;26.27;48.94
21357;BME280;10836;53.068;18.234;2023-08-24T08:50:57;101289.59;;;27.14;44.73
21357;BME280;10836;53.068;18.234;2023-08-24T08:53:24;101293.94;;;26.92;45.19
21357;BME280;10836;53.068;18.234;2023-08-24T08:55:52;101297.03;;;26.87;46.68
21357;BME280;10836;53.068;18.234;2023-08-24T08:58:20;101289.59;;;26.37;44.91
21357;BME280;10836;53.068;18.234;2023-08-24T09:00:48;101293.22;;;26.37;46.53
21357;BME280;10836;53.068;18.234;2023-08-24T09:03:17;101297.97;;;26.02;46.54
21357;BME280;10836;53.068;18.234;2023-08-24T09:05:46;101302.78;;;25.54;47.50
21357;BME280;10836;53.068;18.234;2023-08-24T09:08:16;101297.97;;;25.39;48.19
21357;BME280;10836;53.068;18.234;2023-08-24T09:10:44;101303.03;;;24.77;49.21
21357;BME280;10836;53.068;18.234;2023-08-24T09:13:11;101298.25;;;24.78;49.66
21357;BME280;10836;53.068;18.234;2023-08-24T09:15:39;101292.41;;;24.67;51.53
21357;BME280;10836;53.068;18.234;2023-08-24T09:18:06;101284.25;;;25.18;49.79
21357;BME280;10836;53.068;18.234;2023-08-24T09:20:34;101289.38;;;25.00;48.52
21357;BME280;10836;53.068;18.234;2023-08-24T09:23:01;101294.50;;;24.86;50.33
21357;BME280;10836;53.068;18.234;2023-08-24T09:25:28;101285.06;;;25.18;47.91
21357;BME280;10836;53.068;18.234;2023-08-24T09:27:59;101285.09;;;25.50;47.97
21357;BME280;10836;53.068;18.234;2023-08-24T09:30:36;101278.59;;;25.77;48.76
21357;BME280;10836;53.068;18.234;2023-08-24T09:33:09;101273.63;;;25.87;47.17
21357;BME280;10836;53.068;18.234;2023-08-24T09:35:37;101270.53;;;26.42;45.88
21357;BME280;10836;53.068;18.234;2023-08-24T09:38:21;101269.28;;;28.19;42.32
21357;BME280;10836;53.068;18.234;2023-08-24T09:40:53;101276.53;;;27.94;43.06
21357;BME280;10836;53.068;18.234;2023-08-24T09:43:20;101267.94;;;29.95;37.75
21357;BME280;10836;53.068;18.234;2023-08-24T09:45:55;101281.75;;;29.56;37.69
21357;BME280;10836;53.068;18.234;2023-08-24T09:48:23;101279.19;;;29.40;37.04
21357;BME280;10836;53.068;18.234;2023-08-24T09:50:55;101268.06;;;29.54;37.00
21357;BME280;10836;53.068;18.234;2023-08-24T09:53:23;101272.38;;;29.96;39.42
21357;BME280;10836;53.068;18.234;2023-08-24T09:58:22;101263.00;;;30.39;35.39
21357;BME280;10836;53.068;18.234;2023-08-24T10:00:50;101261.09;;;30.58;35.67
21357;BME280;10836;53.068;18.234;2023-08-24T10:03:19;101259.16;;;30.87;32.69
21357;BME280;10836;53.068;18.234;2023-08-24T10:05:57;101266.69;;;30.51;34.60
21357;BME280;10836;53.068;18.234;2023-08-24T10:08:37;101251.78;;;30.50;34.07
21357;BME280;10836;53.068;18.234;2023-08-24T10:11:06;101263.31;;;29.65;35.36
21357;BME280;10836;53.068;18.234;2023-08-24T10:13:44;101246.56;;;28.91;36.30
21357;BME280;10836;53.068;18.234;2023-08-24T10:16:14;101254.03;;;28.46;35.77
21357;BME280;10836;53.068;18.234;2023-08-24T10:18:43;101244.56;;;28.62;38.25
21357;BME280;10836;53.068;18.234;2023-08-24T10:21:10;101243.66;;;29.69;35.08
21357;BME280;10836;53.068;18.234;2023-08-24T10:23:38;101247.94;;;29.52;36.90
21357;BME280;10836;53.068;18.234;2023-08-24T10:26:07;101232.38;;;30.34;34.80
21357;BME280;10836;53.068;18.234;2023-08-24T10:28:35;101230.03;;;30.51;34.66
21357;BME280;10836;53.068;18.234;2023-08-24T10:31:03;101234.59;;;30.73;34.36
21357;BME280;10836;53.068;18.234;2023-08-24T10:33:31;101234.97;;;30.68;34.38
21357;BME280;10836;53.068;18.234;2023-08-24T10:36:04;101235.91;;;31.18;33.22
21357;BME280;10836;53.068;18.234;2023-08-24T10:38:34;101233.44;;;31.98;32.75
21357;BME280;10836;53.068;18.234;2023-08-24T10:41:02;101229.16;;;30.36;34.85
21357;BME280;10836;53.068;18.234;2023-08-24T10:43:37;101229.53;;;28.80;35.40
21357;BME280;10836;53.068;18.234;2023-08-24T10:46:12;101225.38;;;28.67;38.05
21357;BME280;10836;53.068;18.234;2023-08-24T10:51:15;101211.56;;;29.81;35.79
21357;BME280;10836;53.068;18.234;2023-08-24T10:53:52;101206.66;;;30.32;35.61
21357;BME280;10836;53.068;18.234;2023-08-24T10:56:20;101211.63;;;30.71;35.13
21357;BME280;10836;53.068;18.234;2023-08-24T10:58:48;101197.09;;;30.58;34.50
21357;BME280;10836;53.068;18.234;2023-08-24T11:01:38;101202.13;;;30.17;35.89
21357;BME280;10836;53.068;18.234;2023-08-24T11:04:06;101207.03;;;29.65;35.64
21357;BME280;10836;53.068;18.234;2023-08-24T11:06:51;101207.56;;;30.61;35.44
21357;BME280;10836;53.068;18.234;2023-08-24T11:09:19;101203.06;;;30.50;35.45
21357;BME280;10836;53.068;18.234;2023-08-24T11:11:55;101212.94;;;30.04;35.45
21357;BME280;10836;53.068;18.234;2023-08-24T11:14:23;101202.78;;;29.38;36.16
21357;BME280;10836;53.068;18.234;2023-08-24T11:16:53;101196.88;;;29.02;37.01
21357;BME280;10836;53.068;18.234;2023-08-24T11:19:21;101196.13;;;30.22;36.15
21357;BME280;10836;53.068;18.234;2023-08-24T11:21:48;101199.56;;;30.95;34.24
21357;BME280;10836;53.068;18.234;2023-08-24T11:24:16;101188.13;;;30.38;34.95
21357;BME280;10836;53.068;18.234;2023-08-24T11:26:45;101188.13;;;30.31;35.48
21357;BME280;10836;53.068;18.234;2023-08-24T11:29:13;101192.78;;;31.14;35.07
21357;BME280;10836;53.068;18.234;2023-08-24T11:31:41;101189.94;;;31.53;33.45
21357;BME280;10836;53.068;18.234;2023-08-24T11:34:10;101182.28;;;31.36;32.72
21357;BME280;10836;53.068;18.234;2023-08-24T11:36:46;101172.59;;;31.30;33.54
21357;BME280;10836;53.068;18.234;2023-08-24T11:39:17;101185.91;;;31.12;31.54
21357;BME280;10836;53.068;18.234;2023-08-24T11:42:04;101178.59;;;31.64;31.64
21357;BME280;10836;53.068;18.234;2023-08-24T11:44:48;101177.84;;;31.60;31.30
21357;BME280;10836;53.068;18.234;2023-08-24T11:47:16;101174.19;;;31.73;31.25
21357;BME280;10836;53.068;18.234;2023-08-24T11:49:46;101160.81;;;31.99;32.18
21357;BME280;10836;53.068;18.234;2023-08-24T11:52:13;101170.34;;;32.40;31.73
21357;BME280;10836;53.068;18.234;2023-08-24T11:54:43;101167.31;;;31.64;32.44
21357;BME280;10836;53.068;18.234;2023-08-24T11:57:11;101160.88;;;30.71;33.54
21357;BME280;10836;53.068;18.234;2023-08-24T11:59:39;101163.28;;;30.76;33.11
21357;BME280;10836;53.068;18.234;2023-08-24T12:02:08;101162.91;;;30.70;33.32
21357;BME280;10836;53.068;18.234;2023-08-24T12:04:40;101158.13;;;29.88;34.07
21357;BME280;10836;53.068;18.234;2023-08-24T12:07:12;101154.81;;;28.76;36.39
21357;BME280;10836;53.068;18.234;2023-08-24T12:09:40;101148.72;;;27.21;39.79
21357;BME280;10836;53.068;18.234;2023-08-24T12:12:12;101147.84;;;26.71;41.40
21357;BME280;10836;53.068;18.234;2023-08-24T12:14:44;101145.47;;;26.31;42.31
21357;BME280;10836;53.068;18.234;2023-08-24T12:17:12;101150.81;;;26.59;42.68
21357;BME280;10836;53.068;18.234;2023-08-24T12:19:44;101148.00;;;26.59;42.91
21357;BME280;10836;53.068;18.234;2023-08-24T12:22:16;101147.63;;;27.02;42.43
21357;BME280;10836;53.068;18.234;2023-08-24T12:24:45;101144.38;;;27.23;41.44
21357;BME280;10836;53.068;18.234;2023-08-24T12:29:46;101144.50;;;27.07;43.95
21357;BME280;10836;53.068;18.234;2023-08-24T12:32:13;101145.56;;;28.05;41.45
21357;BME280;10836;53.068;18.234;2023-08-24T12:34:42;101136.59;;;28.63;39.41
21357;BME280;10836;53.068;18.234;2023-08-24T12:37:10;101122.78;;;29.32;36.21
21357;BME280;10836;53.068;18.234;2023-08-24T12:39:38;101129.16;;;28.81;35.93
21357;BME280;10836;53.068;18.234;2023-08-24T12:42:06;101131.41;;;28.28;38.18
21357;BME280;10836;53.068;18.234;2023-08-24T12:44:33;101125.81;;;28.68;39.38
21357;BME280;10836;53.068;18.234;2023-08-24T12:47:00;101126.34;;;28.40;39.82
21357;BME280;10836;53.068;18.234;2023-08-24T12:49:26;101131.75;;;28.60;37.95
21357;BME280;10836;53.068;18.234;2023-08-24T12:51:53;101129.19;;;28.10;40.29
21357;BME280;10836;53.068;18.234;2023-08-24T12:54:20;101119.72;;;28.22;38.84